Decoded Metar for KOGB (ORANGEBURG in SC, USA) (IATA:OGB) | Meteo·Mobile Aviation Weather
aviador You're here:

KOGB Decoded Metar

ORANGEBURG in SC, USA
Report Time2019-02-16 06:53:00
UTC Time2019-02-16 07:54:18
Flight Rules vfr VFR
Wind180° at 04 kt
W.Decomp.*RWY 17: 3.8 kt HW 1.2 kt RCW
RWY 23: 2.9 kt HW 2.7 kt LCW
W.Rank180° ranks 14
Current wind is below 180° avg. (5.9)
Visibility9999 m
Phenomena:Light Rain
Clouds:Overcast 090 Hf
Expected CloudBase > 800 ft AGL from Temp-Dew spread
Ceiling9,000 ft
Temp13°C (ISA -2)
Dew Point11°C (88% RH)
AAT11.9°C
QNH1010 hPa
Density Alt282 ft
Elevation194 ft
Report Wrong Elevation
Raw Report
METAR KOGB 160653Z AUTO 18004KT 7SM -RA OVC090 13/11 A2982 RMK AO2
RAB07 SLP095 P0002 T01330111=

Extra information for KOGB:More info

Metar Taf Metar & Taf Last 4 Metars F.Rules Stats Wind Profile Meteogram Temp Stats Airport Information Weather charts Add Link Nearby VenuesMetar ALERT Operation Metar Decoded Social comments

AIRNAV info for KOGB